Time;durP1;ratioP1;P1;durP2;ratioP2;P2;SDS_P1;SDS_P2;PMS_P1;PMS_P2;Temp;Humidity;BMP_temperature;BMP_pressure;BME280_temperature;BME280_humidity;BME280_pressure;Samples;Min_cycle;Max_cycle;Signal;HPM_P1;HPM_P2
2022/10/02 00:01:05;;;;;;;6.32;2.17;;;;;;;12.73;100.00;98818.69;4120503;28;20210;-47
2022/10/02 00:03:25;;;;;;;8.18;2.03;;;;;;;12.72;100.00;98809.63;4118386;28;20234;-50
2022/10/02 00:05:30;;;;;;;8.20;2.13;;;;;;;12.72;100.00;98839.00;4102218;28;20961;-49
2022/10/02 00:07:40;;;;;;;6.68;2.15;;;;;;;12.78;100.00;98822.31;4120294;28;20237;-50
2022/10/02 00:09:57;;;;;;;5.90;2.20;;;;;;;12.76;100.00;98815.44;4120388;28;20569;-48
2022/10/02 00:12:00;;;;;;;4.95;2.65;;;;;;;12.67;100.00;98817.81;4124250;28;20572;-48
2022/10/02 00:14:03;;;;;;;5.45;1.88;;;;;;;12.69;100.00;98821.09;4124344;28;20233;-51
2022/10/02 00:16:10;;;;;;;5.22;1.85;;;;;;;12.72;100.00;98817.88;4109330;28;20207;-49
2022/10/02 00:18:16;;;;;;;5.03;2.58;;;;;;;12.78;100.00;98816.81;4118494;28;20233;-48
2022/10/02 00:20:22;;;;;;;6.35;1.80;;;;;;;12.78;100.00;98830.53;4121016;28;20198;-48
2022/10/02 00:22:36;;;;;;;3.67;2.00;;;;;;;12.75;100.00;98825.59;4116765;28;20403;-52
2022/10/02 00:24:45;;;;;;;3.38;1.75;;;;;;;12.76;100.00;98838.22;4117984;28;20230;-51
2022/10/02 00:27:04;;;;;;;6.35;2.60;;;;;;;12.80;100.00;98822.91;4125635;28;20288;-48
2022/10/02 00:29:15;;;;;;;10.95;2.83;;;;;;;12.75;100.00;98831.06;4120066;28;20222;-49
2022/10/02 00:31:37;;;;;;;4.32;2.67;;;;;;;12.75;100.00;98828.31;4117756;28;20202;-49
2022/10/02 00:34:08;;;;;;;6.78;2.28;;;;;;;12.77;100.00;98826.16;4118940;28;20226;-47
2022/10/02 00:36:38;;;;;;;8.13;3.38;;;;;;;12.75;100.00;98827.47;4122947;28;20691;-47
2022/10/02 00:38:55;;;;;;;8.30;3.25;;;;;;;12.71;100.00;98818.94;4130061;28;20325;-47
2022/10/02 00:41:18;;;;;;;8.15;3.47;;;;;;;12.67;100.00;98820.53;4114409;28;20205;-47
2022/10/02 00:43:58;;;;;;;8.55;2.80;;;;;;;12.71;100.00;98824.41;4120896;28;20336;-49
2022/10/02 00:46:30;;;;;;;11.75;3.90;;;;;;;12.73;100.00;98827.75;4123828;28;20810;-50
2022/10/02 00:48:46;;;;;;;20.77;4.40;;;;;;;12.72;100.00;98823.38;4120484;28;20257;-48
2022/10/02 00:51:09;;;;;;;16.40;3.80;;;;;;;12.73;100.00;98833.25;4129127;28;20220;-48
2022/10/02 00:53:24;;;;;;;6.85;3.47;;;;;;;12.78;100.00;98841.53;4128229;28;20324;-48
2022/10/02 00:55:33;;;;;;;6.53;3.22;;;;;;;12.73;100.00;98837.91;4112913;28;20301;-49
2022/10/02 00:57:45;;;;;;;6.43;3.22;;;;;;;12.67;100.00;98831.53;4122271;28;20313;-49
2022/10/02 01:00:06;;;;;;;10.20;3.20;;;;;;;12.66;100.00;98832.63;4125061;28;20781;-49
2022/10/02 01:02:31;;;;;;;8.40;3.78;;;;;;;12.69;100.00;98834.84;4126827;28;20212;-49
2022/10/02 01:04:34;;;;;;;7.35;3.22;;;;;;;12.74;100.00;98837.66;4135636;28;20205;-48
2022/10/02 01:06:36;;;;;;;8.38;3.78;;;;;;;12.78;100.00;98840.72;4120955;28;20229;-48
2022/10/02 01:08:38;;;;;;;14.60;3.90;;;;;;;12.73;100.00;98852.47;4122019;28;20289;-50
2022/10/02 01:10:40;;;;;;;8.05;3.92;;;;;;;12.68;100.00;98838.69;4123867;28;20570;-47
2022/10/02 01:12:42;;;;;;;11.80;3.28;;;;;;;12.74;100.00;98840.41;4120520;28;20222;-48
2022/10/02 01:14:44;;;;;;;11.85;3.70;;;;;;;12.77;100.00;98834.38;4124761;28;20249;-48
2022/10/02 01:16:46;;;;;;;11.20;4.22;;;;;;;12.78;100.00;98827.78;4120982;28;20301;-49
2022/10/02 01:18:48;;;;;;;9.45;3.90;;;;;;;12.82;100.00;98826.22;4119672;28;20239;-48
2022/10/02 01:20:53;;;;;;;10.77;3.35;;;;;;;12.70;100.00;98841.97;4126670;28;20237;-48
2022/10/02 01:23:12;;;;;;;6.32;2.90;;;;;;;12.75;100.00;98836.56;4111202;28;20313;-48
2022/10/02 01:25:14;;;;;;;8.57;3.35;;;;;;;12.79;100.00;98847.88;4110469;28;20265;-48
2022/10/02 01:27:15;;;;;;;5.53;3.05;;;;;;;12.73;100.00;98844.25;4118708;28;20293;-50
2022/10/02 01:29:17;;;;;;;7.97;3.55;;;;;;;12.86;100.00;98841.09;4121626;28;20210;-49
2022/10/02 01:31:19;;;;;;;10.05;3.55;;;;;;;12.78;100.00;98830.53;4104927;28;20309;-47
2022/10/02 01:33:21;;;;;;;7.68;3.58;;;;;;;12.78;100.00;98825.06;4126803;28;20226;-48
2022/10/02 01:35:27;;;;;;;9.15;3.53;;;;;;;12.79;100.00;98815.75;4111645;28;20205;-48
2022/10/02 01:37:30;;;;;;;13.30;3.92;;;;;;;12.80;100.00;98822.91;4122015;28;20322;-47
2022/10/02 01:39:32;;;;;;;10.90;4.70;;;;;;;12.83;100.00;98832.56;4112511;28;20207;-49
2022/10/02 01:41:39;;;;;;;6.75;3.40;;;;;;;12.88;100.00;98830.69;4127414;28;20207;-49
2022/10/02 01:43:50;;;;;;;13.65;4.00;;;;;;;12.80;100.00;98838.53;4124937;28;20786;-48
2022/10/02 01:45:58;;;;;;;9.48;3.90;;;;;;;12.81;100.00;98841.03;4120270;28;20227;-48
2022/10/02 01:48:05;;;;;;;13.60;5.07;;;;;;;12.82;100.00;98837.19;4128884;28;20201;-49
2022/10/02 01:50:07;;;;;;;13.25;3.10;;;;;;;12.89;100.00;98837.03;4137665;28;20222;-52
2022/10/02 01:52:13;;;;;;;8.60;3.58;;;;;;;12.79;100.00;98840.47;4120029;28;20212;-48
2022/10/02 01:54:26;;;;;;;9.77;3.00;;;;;;;12.78;100.00;98836.03;4127387;28;20226;-48
2022/10/02 01:57:01;;;;;;;7.47;3.30;;;;;;;12.83;100.00;98840.78;4127275;28;20209;-49
2022/10/02 01:59:13;;;;;;;6.15;3.35;;;;;;;12.86;100.00;98832.88;4101088;28;20229;-50
2022/10/02 02:01:24;;;;;;;9.95;3.63;;;;;;;12.83;100.00;98827.88;4126413;28;20344;-47
2022/10/02 02:03:47;;;;;;;13.98;3.17;;;;;;;12.79;100.00;98837.72;4121695;28;20230;-51
2022/10/02 02:05:55;;;;;;;8.38;3.25;;;;;;;12.79;100.00;98837.72;4104807;28;20223;-49
2022/10/02 02:08:22;;;;;;;11.07;3.55;;;;;;;12.77;100.00;98845.38;4126915;28;20571;-50
2022/10/02 02:10:53;;;;;;;11.02;3.25;;;;;;;12.77;100.00;98842.63;4120560;28;20213;-50
2022/10/02 02:13:05;;;;;;;14.73;3.28;;;;;;;12.75;100.00;98836.56;4101450;28;20249;-50
2022/10/02 02:15:24;;;;;;;5.47;1.88;;;;;;;12.75;100.00;98842.06;4121401;28;20578;-48
2022/10/02 02:17:48;;;;;;;4.22;2.38;;;;;;;12.76;100.00;98840.97;4120661;28;20329;-48
2022/10/02 02:19:56;;;;;;;8.85;3.03;;;;;;;12.70;100.00;98839.25;4123006;28;20230;-49
2022/10/02 02:22:01;;;;;;;7.20;2.90;;;;;;;12.73;100.00;98843.41;4124286;28;20677;-48
2022/10/02 02:24:32;;;;;;;13.27;3.17;;;;;;;12.77;100.00;98850.03;4117420;28;20232;-49
2022/10/02 02:26:35;;;;;;;10.27;3.10;;;;;;;12.68;100.00;98841.41;4122648;28;20711;-49
2022/10/02 02:28:42;;;;;;;9.00;3.17;;;;;;;12.73;100.00;98844.25;4123068;28;20938;-49
2022/10/02 02:30:47;;;;;;;8.23;2.67;;;;;;;12.71;100.00;98845.56;4127455;28;20324;-48
2022/10/02 02:32:55;;;;;;;10.40;3.40;;;;;;;12.72;100.00;98848.06;4119712;28;20243;-48
2022/10/02 02:35:04;;;;;;;9.35;3.58;;;;;;;12.70;100.00;98833.75;4102421;28;20204;-49
2022/10/02 02:37:12;;;;;;;15.55;2.53;;;;;;;12.61;100.00;98829.81;4111242;28;20301;-49
2022/10/02 02:39:17;;;;;;;8.77;3.20;;;;;;;12.64;100.00;98840.25;4125603;28;20304;-48
2022/10/02 02:41:24;;;;;;;5.65;2.38;;;;;;;12.69;100.00;98832.09;4111293;28;20576;-49
2022/10/02 02:43:30;;;;;;;9.38;2.92;;;;;;;12.62;100.00;98828.72;4126113;28;20225;-48
2022/10/02 02:45:36;;;;;;;10.60;2.90;;;;;;;12.63;100.00;98835.03;4119542;28;20210;-49
2022/10/02 02:47:54;;;;;;;6.15;3.17;;;;;;;12.60;100.00;98833.63;4123939;28;20212;-50
2022/10/02 02:50:04;;;;;;;8.70;2.55;;;;;;;12.62;100.00;98836.94;4125543;28;20213;-49
2022/10/02 02:52:09;;;;;;;6.32;2.85;;;;;;;12.61;100.00;98849.03;4127143;28;20260;-50
2022/10/02 02:54:15;;;;;;;12.82;3.25;;;;;;;12.66;100.00;98845.50;4123140;28;20236;-49
2022/10/02 02:56:19;;;;;;;10.38;3.58;;;;;;;12.63;100.00;98844.09;4133640;28;20711;-49
2022/10/02 02:58:44;;;;;;;6.50;2.42;;;;;;;12.61;100.00;98834.44;4116615;28;20305;-48
2022/10/02 03:00:45;;;;;;;10.60;2.75;;;;;;;12.69;100.00;98837.59;4120517;28;20206;-48
2022/10/02 03:02:49;;;;;;;7.32;2.80;;;;;;;12.68;100.00;98841.41;4118951;28;20342;-49
2022/10/02 03:04:51;;;;;;;9.82;3.35;;;;;;;12.67;100.00;98845.25;4127985;28;20306;-48
2022/10/02 03:06:57;;;;;;;9.55;3.20;;;;;;;12.72;100.00;98848.06;4109508;28;20205;-49
2022/10/02 03:09:00;;;;;;;5.15;2.08;;;;;;;12.66;100.00;98843.59;4123117;28;20206;-48
2022/10/02 03:11:05;;;;;;;11.68;2.95;;;;;;;12.59;100.00;98848.47;4121495;28;20249;-50
2022/10/02 03:13:26;;;;;;;9.50;2.42;;;;;;;12.68;100.00;98846.91;4118254;28;20308;-51
2022/10/02 03:15:48;;;;;;;10.82;3.08;;;;;;;12.59;100.00;98859.44;4120421;28;21512;-51
2022/10/02 03:18:02;;;;;;;8.85;2.70;;;;;;;12.60;100.00;98847.38;4135594;28;20202;-48
2022/10/02 03:20:15;;;;;;;10.32;2.70;;;;;;;12.61;100.00;98850.91;4119249;28;20198;-49
2022/10/02 03:22:35;;;;;;;14.48;2.78;;;;;;;12.62;100.00;98847.94;4119876;28;20202;-48
2022/10/02 03:25:03;;;;;;;11.43;3.35;;;;;;;12.57;100.00;98839.63;4120005;28;20203;-48
2022/10/02 03:27:12;;;;;;;8.80;2.95;;;;;;;12.67;100.00;98839.78;4123650;28;20209;-49
2022/10/02 03:29:23;;;;;;;3.75;2.33;;;;;;;12.65;100.00;98847.41;4109952;28;20198;-48
2022/10/02 03:31:28;;;;;;;6.43;2.95;;;;;;;12.64;100.00;98844.94;4122443;28;20244;-49
2022/10/02 03:33:34;;;;;;;8.57;2.25;;;;;;;12.66;100.00;98849.09;4119618;28;20226;-48
2022/10/02 03:35:36;;;;;;;8.50;2.78;;;;;;;12.67;100.00;98849.91;4120239;28;20238;-47
2022/10/02 03:37:41;;;;;;;11.23;3.20;;;;;;;12.65;100.00;98849.34;4123022;28;20613;-49
2022/10/02 03:39:43;;;;;;;8.00;2.90;;;;;;;12.63;100.00;98851.53;4107723;28;20645;-49
2022/10/02 03:41:45;;;;;;;14.23;2.25;;;;;;;12.62;100.00;98845.19;4109952;28;20214;-49
2022/10/02 03:43:47;;;;;;;8.95;3.75;;;;;;;12.68;100.00;98857.06;4110433;28;20264;-48
2022/10/02 03:45:48;;;;;;;7.10;2.88;;;;;;;12.68;100.00;98855.16;4118760;28;20337;-48
2022/10/02 03:47:52;;;;;;;9.60;3.95;;;;;;;12.67;100.00;98856.25;4119518;28;20202;-49
2022/10/02 03:49:54;;;;;;;6.97;2.53;;;;;;;12.66;100.00;98854.59;4124382;28;20605;-50
2022/10/02 03:51:55;;;;;;;8.90;2.90;;;;;;;12.65;100.00;98858.38;4119673;28;20211;-48
2022/10/02 03:53:57;;;;;;;10.93;2.97;;;;;;;12.71;100.00;98846.38;4101243;28;20241;-49
2022/10/02 03:56:17;;;;;;;10.20;3.67;;;;;;;12.69;100.00;98851.31;4102886;28;20253;-49
2022/10/02 03:58:19;;;;;;;10.50;4.05;;;;;;;12.68;100.00;98857.91;4117475;28;20213;-49
2022/10/02 04:00:33;;;;;;;7.43;3.25;;;;;;;12.69;100.00;98858.72;4104534;28;20211;-49
2022/10/02 04:02:46;;;;;;;14.05;2.53;;;;;;;12.70;100.00;98861.22;4118234;28;20225;-52
2022/10/02 04:05:07;;;;;;;6.60;2.47;;;;;;;12.64;100.00;98848.50;4119356;28;20210;-49
2022/10/02 04:07:15;;;;;;;6.85;2.60;;;;;;;12.63;100.00;98849.59;4118083;28;20245;-47
2022/10/02 04:09:24;;;;;;;7.72;3.20;;;;;;;12.66;100.00;98854.59;4117378;28;20195;-48
2022/10/02 04:11:35;;;;;;;11.38;2.67;;;;;;;12.67;100.00;98842.50;4119588;28;20288;-48
2022/10/02 04:13:52;;;;;;;8.70;2.63;;;;;;;12.66;100.00;98843.59;4123561;28;20252;-49
2022/10/02 04:15:56;;;;;;;8.85;2.92;;;;;;;12.64;100.00;98844.94;4124832;28;20353;-49
2022/10/02 04:18:04;;;;;;;9.18;3.08;;;;;;;12.71;100.00;98848.31;4115639;28;20300;-47
2022/10/02 04:20:22;;;;;;;8.60;2.53;;;;;;;12.64;100.00;98844.94;4123512;28;20213;-48
2022/10/02 04:22:42;;;;;;;12.35;2.40;;;;;;;12.59;100.00;98842.97;4125732;28;20219;-49
2022/10/02 04:24:50;;;;;;;12.35;3.28;;;;;;;12.54;100.00;98845.63;4110213;28;20303;-50
2022/10/02 04:27:04;;;;;;;9.20;2.50;;;;;;;12.60;100.00;98844.63;4125055;28;20208;-47
2022/10/02 04:29:14;;;;;;;6.93;2.30;;;;;;;12.55;100.00;98844.53;4124911;28;20693;-52
2022/10/02 04:31:16;;;;;;;6.57;2.33;;;;;;;12.56;100.00;98843.47;4120175;28;20208;-47
2022/10/02 04:33:19;;;;;;;10.23;2.67;;;;;;;12.57;100.00;98845.13;4125136;28;20240;-47
2022/10/02 04:35:45;;;;;;;6.38;2.30;;;;;;;12.62;100.00;98836.94;4119199;28;20266;-50
2022/10/02 04:38:05;;;;;;;6.78;2.22;;;;;;;12.60;100.00;98832.78;4127129;28;20206;-48
2022/10/02 04:40:16;;;;;;;6.43;2.28;;;;;;;12.60;100.00;98841.03;4125378;28;20231;-49
2022/10/02 04:42:20;;;;;;;8.02;2.88;;;;;;;12.60;100.00;98839.13;4119403;28;20198;-50
2022/10/02 04:44:29;;;;;;;10.65;2.58;;;;;;;12.57;100.00;98842.38;4118030;28;20293;-48
2022/10/02 04:46:44;;;;;;;9.02;2.65;;;;;;;12.62;100.00;98845.19;4124984;28;20213;-48
2022/10/02 04:49:20;;;;;;;14.13;2.92;;;;;;;12.52;100.00;98839.56;4116778;28;20746;-48
2022/10/02 04:51:39;;;;;;;9.05;3.13;;;;;;;12.58;100.00;98841.28;4121504;28;20216;-50
2022/10/02 04:54:03;;;;;;;5.88;2.03;;;;;;;12.54;100.00;98845.63;4121810;28;20230;-49
2022/10/02 04:56:26;;;;;;;7.63;2.80;;;;;;;12.60;100.00;98843.78;4126282;28;20640;-51
2022/10/02 04:58:34;;;;;;;8.15;2.45;;;;;;;12.62;100.00;98847.94;4119812;28;20202;-49
2022/10/02 05:00:46;;;;;;;7.60;2.80;;;;;;;12.56;100.00;98837.97;4118967;28;20216;-48
2022/10/02 05:03:01;;;;;;;11.35;2.78;;;;;;;12.51;100.00;98837.91;4124509;28;20234;-52
2022/10/02 05:05:14;;;;;;;8.65;2.72;;;;;;;12.51;100.00;98829.66;4119769;28;20210;-49
2022/10/02 05:07:33;;;;;;;5.60;2.92;;;;;;;12.60;100.00;98839.13;4117183;28;20202;-47
2022/10/02 05:09:52;;;;;;;7.60;2.50;;;;;;;12.58;100.00;98829.47;4126247;28;20206;-46
2022/10/02 05:12:22;;;;;;;12.23;3.00;;;;;;;12.56;100.00;98826.97;4117521;28;21138;-47
2022/10/02 05:14:43;;;;;;;7.13;2.45;;;;;;;12.60;100.00;98830.03;4124017;28;20214;-47
2022/10/02 05:17:04;;;;;;;5.32;2.30;;;;;;;12.52;100.00;98830.50;4124729;28;21015;-48
2022/10/02 05:19:27;;;;;;;6.78;2.72;;;;;;;12.58;100.00;98833.03;4120938;28;20230;-48
2022/10/02 05:22:14;;;;;;;6.47;2.00;;;;;;;12.60;100.00;98828.16;4124782;28;20239;-48
2022/10/02 05:24:47;;;;;;;7.32;2.17;;;;;;;12.51;100.00;98832.41;4121626;28;20629;-47
2022/10/02 05:27:21;;;;;;;5.35;2.05;;;;;;;12.56;100.00;98837.97;4096553;28;20210;-48
2022/10/02 05:29:29;;;;;;;10.05;2.15;;;;;;;12.61;100.00;98839.94;4104514;28;20645;-48
2022/10/02 05:32:07;;;;;;;11.20;2.22;;;;;;;12.54;100.00;98845.63;4122839;28;20216;-48
2022/10/02 05:34:30;;;;;;;6.95;2.13;;;;;;;12.54;100.00;98845.63;4126197;28;20233;-48
2022/10/02 05:36:53;;;;;;;5.80;1.95;;;;;;;12.55;100.00;98841.81;4122743;28;20720;-47
2022/10/02 05:39:03;;;;;;;4.35;2.15;;;;;;;12.49;100.00;98839.22;4119727;28;20209;-48
2022/10/02 05:41:15;;;;;;;7.68;2.03;;;;;;;12.44;100.00;98845.47;4128250;28;20590;-48
2022/10/02 05:43:58;;;;;;;7.30;2.67;;;;;;;12.42;100.00;98842.16;4118792;28;20221;-47
2022/10/02 05:46:04;;;;;;;10.48;2.08;;;;;;;12.45;100.00;98847.13;4128027;28;20583;-48
2022/10/02 05:48:23;;;;;;;2.53;1.63;;;;;;;12.40;100.00;98849.84;4123752;28;20234;-47
2022/10/02 05:50:29;;;;;;;6.25;2.10;;;;;;;12.43;100.00;98854.81;4121662;28;20592;-47
2022/10/02 05:52:33;;;;;;;4.60;1.90;;;;;;;12.41;100.00;98851.50;4121190;28;20290;-48
2022/10/02 05:55:03;;;;;;;3.15;1.40;;;;;;;12.43;100.00;98854.81;4122035;28;20211;-48
2022/10/02 05:57:25;;;;;;;4.13;1.50;;;;;;;12.41;100.00;98862.47;4121011;28;20206;-48
2022/10/02 06:00:10;;;;;;;9.05;2.22;;;;;;;12.35;100.00;98858.00;4124159;28;20226;-48
2022/10/02 06:02:31;;;;;;;3.05;1.38;;;;;;;12.32;100.00;98847.53;4126157;28;20198;-47
2022/10/02 06:04:44;;;;;;;3.05;1.42;;;;;;;12.34;100.00;98850.00;4125344;28;20213;-47
2022/10/02 06:06:52;;;;;;;2.47;1.35;;;;;;;12.31;100.00;98856.81;4119208;28;20198;-47
2022/10/02 06:09:04;;;;;;;2.47;1.35;;;;;;;12.32;100.00;98857.66;4120429;28;20217;-49
2022/10/02 06:11:17;;;;;;;1.75;0.90;;;;;;;12.26;100.00;98861.41;4120213;28;20212;-48
2022/10/02 06:13:28;;;;;;;5.15;1.50;;;;;;;12.24;100.00;98856.19;4118764;28;20648;-48
2022/10/02 06:15:37;;;;;;;3.80;1.60;;;;;;;12.22;100.00;98847.38;4119688;28;20590;-47
2022/10/02 06:17:44;;;;;;;4.72;1.25;;;;;;;12.22;100.00;98841.88;4120445;28;20579;-48
2022/10/02 06:19:54;;;;;;;1.80;1.20;;;;;;;12.25;100.00;98843.31;4122302;28;20214;-47
2022/10/02 06:22:10;;;;;;;1.63;1.10;;;;;;;12.21;100.00;98833.91;4124280;28;20214;-49
2022/10/02 06:24:19;;;;;;;2.55;1.17;;;;;;;12.24;100.00;98842.47;4123238;28;20231;-48
2022/10/02 06:26:25;;;;;;;1.95;1.60;;;;;;;12.23;100.00;98843.53;4108613;28;20286;-48
2022/10/02 06:28:50;;;;;;;2.10;1.90;;;;;;;12.26;100.00;98837.56;4126561;28;20280;-47
2022/10/02 06:31:09;;;;;;;3.20;2.00;;;;;;;12.20;100.00;98849.56;4118388;28;20210;-50
2022/10/02 06:33:16;;;;;;;2.47;1.42;;;;;;;12.15;100.00;98852.22;4120384;28;20241;-49
2022/10/02 06:35:34;;;;;;;1.98;1.30;;;;;;;12.19;100.00;98839.66;4117554;28;20293;-49
2022/10/02 06:37:49;;;;;;;1.67;1.48;;;;;;;12.20;100.00;98833.09;4137739;28;20217;-47
2022/10/02 06:39:57;;;;;;;2.15;1.58;;;;;;;12.24;100.00;98823.25;4120161;28;20221;-49
2022/10/02 06:42:24;;;;;;;2.30;2.10;;;;;;;12.21;100.00;98829.25;4127304;28;20689;-47
2022/10/02 06:44:28;;;;;;;2.55;1.77;;;;;;;12.25;100.00;98832.31;4127463;28;20238;-47
2022/10/02 06:46:30;;;;;;;4.65;1.35;;;;;;;12.24;100.00;98838.91;4124998;28;20216;-46
2022/10/02 06:48:58;;;;;;;1.20;1.10;;;;;;;12.16;100.00;98837.41;4125922;28;20325;-47
2022/10/02 06:51:34;;;;;;;2.13;1.30;;;;;;;12.20;100.00;98830.34;4110231;28;20625;-47
2022/10/02 06:54:04;;;;;;;1.77;1.25;;;;;;;12.23;100.00;98831.75;4121932;28;20292;-47
2022/10/02 06:56:28;;;;;;;1.75;1.20;;;;;;;12.22;100.00;98836.41;4115467;28;20226;-48
2022/10/02 06:59:11;;;;;;;2.70;1.40;;;;;;;12.26;100.00;98833.97;4106768;28;20210;-47
2022/10/02 07:01:52;;;;;;;2.40;1.20;;;;;;;12.36;100.00;98845.94;4127783;28;20289;-48
2022/10/02 07:04:07;;;;;;;1.27;1.20;;;;;;;12.34;100.00;98837.13;4127869;28;21459;-48
2022/10/02 07:06:19;;;;;;;1.98;1.40;;;;;;;12.30;100.00;98838.69;4124365;28;20232;-49
2022/10/02 07:08:36;;;;;;;2.65;1.10;;;;;;;12.37;100.00;98838.53;4126281;28;20218;-48
2022/10/02 07:10:47;;;;;;;1.83;1.42;;;;;;;12.27;100.00;98839.22;4133356;28;20210;-49
2022/10/02 07:12:52;;;;;;;1.35;1.23;;;;;;;12.22;100.00;98839.16;4118636;28;20232;-48
2022/10/02 07:15:24;;;;;;;1.75;1.65;;;;;;;12.16;100.00;98834.66;4126880;28;20676;-48
2022/10/02 07:17:46;;;;;;;1.58;1.40;;;;;;;12.19;100.00;98833.34;4120425;28;20457;-47
2022/10/02 07:20:12;;;;;;;1.15;1.00;;;;;;;12.18;100.00;98828.94;4126617;28;20216;-49
2022/10/02 07:22:29;;;;;;;2.60;1.50;;;;;;;12.24;100.00;98839.72;4121544;28;20293;-47
2022/10/02 07:24:51;;;;;;;1.52;1.42;;;;;;;12.34;100.00;98839.88;4127549;28;20268;-48
2022/10/02 07:27:09;;;;;;;1.00;0.90;;;;;;;12.29;100.00;98842.53;4126957;28;20213;-50
2022/10/02 07:29:21;;;;;;;1.33;1.00;;;;;;;12.33;100.00;98849.19;4125842;28;20301;-48
2022/10/02 07:31:32;;;;;;;1.35;1.27;;;;;;;12.32;100.00;98857.66;4126068;28;20300;-49
2022/10/02 07:33:57;;;;;;;1.33;1.00;;;;;;;12.36;100.00;98859.66;4118927;28;20261;-50
2022/10/02 07:36:12;;;;;;;1.27;1.20;;;;;;;12.40;100.00;98859.97;4123825;28;20639;-51
2022/10/02 07:38:42;;;;;;;1.42;1.35;;;;;;;12.36;100.00;98865.13;4118511;28;20995;-49
2022/10/02 07:40:50;;;;;;;0.98;0.95;;;;;;;12.45;100.00;98869.09;4118405;28;20654;-49
2022/10/02 07:43:24;;;;;;;1.23;1.20;;;;;;;12.46;100.00;98876.28;4124070;28;20221;-48
2022/10/02 07:45:27;;;;;;;1.98;1.30;;;;;;;12.49;100.00;98869.41;4115633;28;20297;-49
2022/10/02 07:47:46;;;;;;;1.33;1.17;;;;;;;12.47;100.00;98861.47;4120667;28;20209;-48
2022/10/02 07:50:16;;;;;;;2.53;1.88;;;;;;;12.48;100.00;98860.38;4120305;28;20290;-47
2022/10/02 07:52:17;;;;;;;2.50;2.30;;;;;;;12.43;100.00;98854.81;4125171;28;20568;-48
2022/10/02 07:54:19;;;;;;;2.85;1.60;;;;;;;12.47;100.00;98850.47;4117710;28;20226;-49
2022/10/02 07:56:22;;;;;;;6.05;4.65;;;;;;;12.44;100.00;98856.47;4125842;28;20206;-47
2022/10/02 07:58:48;;;;;;;3.55;3.13;;;;;;;12.41;100.00;98861.63;4117709;28;20206;-47
2022/10/02 08:00:54;;;;;;;2.40;2.20;;;;;;;12.49;100.00;98861.19;4124017;28;20236;-48
2022/10/02 08:03:00;;;;;;;1.85;1.75;;;;;;;12.55;100.00;98863.75;4119934;28;20330;-49
2022/10/02 08:05:05;;;;;;;2.72;1.40;;;;;;;12.57;100.00;98867.06;4123271;28;20252;-50
2022/10/02 08:07:07;;;;;;;0.90;0.90;;;;;;;12.57;100.00;98860.78;4110000;28;20246;-48
2022/10/02 08:09:18;;;;;;;0.80;0.80;;;;;;;12.59;100.00;98853.94;4120631;28;20202;-48
2022/10/02 08:11:31;;;;;;;1.95;1.05;;;;;;;12.60;100.00;98850.13;4130781;28;20205;-49
2022/10/02 08:13:55;;;;;;;9.65;6.78;;;;;;;12.59;100.00;98853.94;4117426;28;20364;-47
2022/10/02 08:15:56;;;;;;;2.85;1.73;;;;;;;12.62;100.00;98852.56;4133479;28;20289;-48
2022/10/02 08:18:07;;;;;;;0.90;0.90;;;;;;;12.62;100.00;98858.91;4119341;28;20308;-48
2022/10/02 08:20:37;;;;;;;4.82;0.80;;;;;;;12.55;100.00;98861.03;4121193;28;20271;-49
2022/10/02 08:22:47;;;;;;;0.80;0.80;;;;;;;12.55;100.00;98857.44;4120740;28;20206;-48
2022/10/02 08:24:55;;;;;;;0.80;0.80;;;;;;;12.61;100.00;98870.13;4125765;28;20201;-48
2022/10/02 08:27:01;;;;;;;2.15;1.00;;;;;;;12.67;100.00;98871.88;4117229;28;20216;-48
2022/10/02 08:29:07;;;;;;;0.68;0.68;;;;;;;12.70;100.00;98865.88;4117974;28;20285;-51
2022/10/02 08:31:12;;;;;;;1.10;1.00;;;;;;;12.70;100.00;98863.94;4119443;28;20297;-52
2022/10/02 08:33:17;;;;;;;1.45;1.00;;;;;;;12.75;100.00;98868.66;4119974;28;20703;-48
2022/10/02 08:35:20;;;;;;;0.60;0.60;;;;;;;12.83;100.00;98874.56;4100932;28;20213;-50
2022/10/02 08:37:24;;;;;;;0.82;0.60;;;;;;;12.69;100.00;98870.53;4114398;28;20591;-48
2022/10/02 08:39:41;;;;;;;0.60;0.60;;;;;;;12.75;100.00;98875.00;4122775;28;20324;-48
2022/10/02 08:41:53;;;;;;;0.60;0.60;;;;;;;12.82;100.00;98864.66;4125330;28;20201;-48
2022/10/02 08:44:12;;;;;;;0.77;0.77;;;;;;;12.84;100.00;98870.72;4118883;28;20225;-49
2022/10/02 08:46:38;;;;;;;0.70;0.70;;;;;;;12.89;100.00;98870.78;4118370;28;20221;-47
2022/10/02 08:49:17;;;;;;;0.55;0.55;;;;;;;12.90;100.00;98868.88;4119073;28;20212;-49
2022/10/02 08:51:56;;;;;;;0.70;0.70;;;;;;;12.83;100.00;98863.56;4118430;28;20290;-50
2022/10/02 08:54:04;;;;;;;0.60;0.60;;;;;;;12.71;100.00;98865.59;4115877;28;20292;-49
2022/10/02 08:56:10;;;;;;;0.70;0.70;;;;;;;12.74;100.00;98861.53;4117846;28;20556;-48
2022/10/02 08:58:36;;;;;;;0.90;0.80;;;;;;;12.81;100.00;98879.47;4119472;28;20216;-50
2022/10/02 09:01:12;;;;;;;0.93;0.93;;;;;;;12.82;100.00;98881.16;4119315;28;20221;-49
2022/10/02 09:03:27;;;;;;;0.90;0.90;;;;;;;12.86;100.00;98876.81;4128314;28;20753;-52
2022/10/02 09:05:56;;;;;;;1.23;1.20;;;;;;;12.82;100.00;98881.16;4125589;28;20317;-49
2022/10/02 09:08:19;;;;;;;1.52;1.00;;;;;;;12.80;100.00;98875.09;4119326;28;20321;-49
2022/10/02 09:11:14;;;;;;;1.20;1.10;;;;;;;12.80;100.00;98864.09;4133011;28;20230;-50
2022/10/02 09:13:41;;;;;;;1.10;1.10;;;;;;;12.74;100.00;98859.63;4082868;28;20227;-49
2022/10/02 09:16:08;;;;;;;1.30;1.20;;;;;;;12.77;100.00;98850.03;4069454;29;20223;-47
2022/10/02 09:18:28;;;;;;;1.42;1.33;;;;;;;12.74;100.00;98845.91;4076654;28;20285;-51
2022/10/02 09:20:40;;;;;;;1.10;1.10;;;;;;;12.78;100.00;98858.00;4124719;28;21134;-48
2022/10/02 09:23:19;;;;;;;1.50;1.40;;;;;;;12.74;100.00;98862.38;4117215;28;20238;-50
2022/10/02 09:25:36;;;;;;;1.90;1.80;;;;;;;12.77;100.00;98870.09;4123183;28;20237;-49
2022/10/02 09:27:50;;;;;;;1.17;1.15;;;;;;;12.73;100.00;98868.97;4128028;28;20241;-52
2022/10/02 09:30:21;;;;;;;1.67;1.27;;;;;;;12.76;100.00;98865.69;4122341;28;20713;-49
2022/10/02 09:32:42;;;;;;;0.93;0.93;;;;;;;12.72;100.00;98864.56;4123775;28;20577;-47
2022/10/02 09:34:57;;;;;;;1.42;1.33;;;;;;;12.73;100.00;98866.22;4121840;28;20583;-48
2022/10/02 09:36:59;;;;;;;2.38;2.17;;;;;;;12.78;100.00;98874.50;4120378;28;20716;-52
2022/10/02 09:39:19;;;;;;;9.32;8.25;;;;;;;12.85;100.00;98874.31;4121235;28;20719;-49
2022/10/02 09:41:51;;;;;;;4.32;3.92;;;;;;;12.83;100.00;98888.28;4123335;28;20224;-47
2022/10/02 09:44:30;;;;;;;1.40;1.30;;;;;;;12.88;100.00;98885.63;4122210;28;20230;-48
2022/10/02 09:46:33;;;;;;;1.95;1.55;;;;;;;12.85;100.00;98864.13;4122325;28;20198;-48
2022/10/02 09:49:17;;;;;;;2.13;1.35;;;;;;;12.72;100.00;98867.28;4123581;28;20218;-48
2022/10/02 09:51:54;;;;;;;1.38;1.27;;;;;;;12.80;100.00;98882.47;4092682;28;20743;-49
2022/10/02 09:53:58;;;;;;;1.58;1.48;;;;;;;12.83;100.00;98881.97;4122091;28;20243;-49
2022/10/02 09:56:08;;;;;;;1.83;1.60;;;;;;;12.89;100.00;98886.47;4119715;28;20229;-48
2022/10/02 09:58:31;;;;;;;2.70;2.50;;;;;;;12.83;100.00;98892.97;4120857;28;20704;-48
2022/10/02 10:00:42;;;;;;;2.17;1.98;;;;;;;12.93;100.00;98888.44;4120549;28;20615;-48
2022/10/02 10:02:44;;;;;;;1.58;1.48;;;;;;;12.95;100.00;98886.28;4121524;28;20234;-48
2022/10/02 10:04:57;;;;;;;1.10;1.10;;;;;;;13.00;100.00;98878.09;4122741;28;20577;-49
2022/10/02 10:07:22;;;;;;;1.13;1.10;;;;;;;12.98;100.00;98863.78;4121096;28;20205;-49
2022/10/02 10:09:45;;;;;;;0.90;0.90;;;;;;;12.97;100.00;98870.38;4125023;28;20694;-48
2022/10/02 10:12:07;;;;;;;1.27;0.77;;;;;;;12.89;100.00;98873.53;4126729;28;20210;-48
2022/10/02 10:14:20;;;;;;;1.02;1.02;;;;;;;13.01;100.00;98877.03;4122439;28;20232;-49
2022/10/02 10:16:40;;;;;;;1.00;1.00;;;;;;;13.00;100.00;98880.84;4123367;28;20618;-47
2022/10/02 10:18:46;;;;;;;1.30;0.90;;;;;;;13.12;100.00;98881.56;4125482;28;20234;-49
2022/10/02 10:20:56;;;;;;;10.80;9.65;;;;;;;13.10;100.00;98883.72;4122017;28;20690;-49
2022/10/02 10:23:35;;;;;;;5.07;4.40;;;;;;;13.14;100.00;98879.38;4120134;28;20236;-51
2022/10/02 10:25:43;;;;;;;3.83;3.47;;;;;;;13.18;100.00;98877.75;4123210;28;20237;-51